Walloon Lake, MI (49796)

11:22 PM EST on March 01, 2015 (GMT -0500)
APRSWXNET Harbor Springs MI US | Change Station
CLOSE
Current Station
Personal Weather Station
Location: Walloon Lake, MI
Elevation: 898 ft
Nearby Weather Stations

Elev 898 ft 45.30 °N, 84.90 °W | Updated 38 minutes ago

Snow
Snow
21 °F
Feels Like 21 °F
N
1
Wind Variable Wind from West
Gusts 3.0 mph

Today
High -- | Low -- °F
--% Chance of Precip.
Yesterday
High -- | Low -- °F
Precip. -- in
7:18 AM 6:26 PM
Waxing Gibbous, 89% visible
Pressure 30.10 in
Visibility 4.0 miles
Clouds Scattered Clouds 1500 ft
Mostly Cloudy 2300 ft
Overcast 5000 ft
Windchill 21 °F
Dew Point 19 °F
Humidity 91%
Rainfall 0.00 in
Snow Depth Not available.
UV 0 out of 12
Pollen .30 out of 12
Air Quality Not available.
Flu Activity Not available.
METAR KMGN 020414Z AUTO 27007G14KT 4SM -SN SCT015 BKN023 OVC050 M05/M07 A3010 RMK AO2 T10551077

More Conditions Fewer Conditions

Pressure 30.10 in
Visibility 4.0 miles
Clouds Scattered Clouds 1500 ft
Mostly Cloudy 2300 ft
Overcast 5000 ft
Windchill 21 °F
Dew Point 19 °F
Humidity 91%
Rainfall 0.00 in
Snow Depth Not available.
UV 0 out of 12
Pollen .30 out of 12
Air Quality Not available.
Flu Activity Not available.
METAR KMGN 020414Z AUTO 27007G14KT 4SM -SN SCT015 BKN023 OVC050 M05/M07 A3010 RMK AO2 T10551077

More Conditions Fewer Conditions

Nowcast | as of 11:00 PM EST on March 1, 2015

At 12 am...occasional snow showers. Temperature 20. West winds 15 mph. At 2 am...cloudy. Scattered snow showers. Temperature 17. West winds 16 mph. At 4 am...mostly cloudy. Occasional flurries. Temperature 15. West winds 14 mph. Wind chill zero. At 6 am...partly cloudy. Occasional flurries. Temperature 12. West winds 14 mph. Wind chill 3 below.

×

10-Day Weather Forecast

Almanac

Astronomy

Mar. 01, 2015 Rise Set
Actual Time
Civil Twilight
Nautical Twilight
Astronomical Twilight
Moon
Length of Visible Light
Length of Day
Tomorrow will be .
, % of the Moon is Illuminated

Today's Extremes

State Highs State Lows

Community

WunderPhotos

Upload Photos

1,801,724 photos uploaded!

WunderBlogs® & News

Nearby

Air Quality

  Air Quality AQ Index Pollutant
Not available.

Snow Depth

Station Depth Elevation

Earthquake Activity

City Distance Mag. Time & Date
Minimum magnitude displayed is 2.5.

Coastal Water Temperatures

Place Temperature

Nearby Weather Stations